Olivenhain, California
Current Conditions -  °F | °C
As of 10:53 PM on Thursday 18 Dec 2014 (Local Time) from KCRQ Reporting Station
Clear Clear  
Wind Chill: 53°   Ceiling: Unl
Heat Index: 53°   Visibility: 10mi
Dew Point: 48°   Wind: 3mph
Humidity: 83%   Direction: 70°ENE
Pressure: 30.2"   Gusts: NA
Location:  33.0541°N, 117.25°W
Report Text: KCRQ 190653Z AUTO 07003KT 10SM CLR 12/09 A3020 RMK AO2 SLP226 T01170089 TSNO
Loading
Personal Weather Stations






























Interactive Weather Map New forecast layout! Learn more

10-Day Weather Forecast

Advertisements
Track Severe Weather on mobile